Pattaya, Thailand

3:09 AM ICT on October 26, 2014 (GMT +0700)
Pratamnak Hill | Change Station
CLOSE
Current Station
Personal Weather Station
Location: Pattaya, CHON BURI
Elevation: 0 ft
Nearby Weather Stations

Elev 0 ft 12.92 °N, 100.86 °E | Updated 3 seconds ago

Scattered Clouds
Scattered Clouds
77.7 °F
Feels Like 80 °F
N
0.0
Wind Variable Wind from SE
Gusts 0.0 mph

Today
High -- | Low -- °F
--% Chance of Precip.
Yesterday
High -- | Low -- °F
Precip. -- in
6:08 AM 5:52 PM
Waxing Crescent, 4% visible
Pressure 29.83 in
Visibility 2.5 miles
Clouds Few 2000 ft
Scattered Clouds 30000 ft
Heat Index 80 °F
Dew Point 75 °F
Humidity 91%
Rainfall 0.00 in
Snow Depth Not available.
UV 0 out of 12
Pollen Not available.
Air Quality Not available.
Flu Activity Not available.
METAR VTBU 252000Z 36003KT 4000 BR FEW020 SCT300 25/24 Q1010 A2985

More Conditions Fewer Conditions

Pressure 29.83 in
Visibility 2.5 miles
Clouds Few 2000 ft
Scattered Clouds 30000 ft
Heat Index 80 °F
Dew Point 75 °F
Humidity 91%
Rainfall 0.00 in
Snow Depth Not available.
UV 0 out of 12
Pollen Not available.
Air Quality Not available.
Flu Activity Not available.
METAR VTBU 252000Z 36003KT 4000 BR FEW020 SCT300 25/24 Q1010 A2985

More Conditions Fewer Conditions

10-Day Weather Forecast

Almanac

Astronomy

Oct. 26, 2014 Rise Set
Actual Time 6:08 AM ICT 5:52 PM ICT
Civil Twilight 5:46 AM ICT 6:13 PM ICT
Nautical Twilight 5:21 AM ICT 6:39 PM ICT
Astronomical Twilight 4:56 AM ICT 7:04 PM ICT
Moon 8:01 AM ICT (10/26) 7:53 PM ICT (10/26)
Length of Visible Light 12h 27m
Length of Day
11h 43m
Tomorrow will be 0m 39s shorter.
Waxing Crescent, 4% of the Moon is Illuminated
Oct 25
Waxing Crescent
Oct 30
First Quarter
Nov 6
Full
Nov 14
Last Quarter
Nov 22
New

Yesterday's Extremes

Country Highs Country Lows

Community

WunderPhotos

Upload Photos

1,764,976 photos uploaded!

Nearby

Snow Depth

Not available.

Earthquake Activity

City Distance Mag. Time & Date
No recent earthquake activity has been reported nearby.
Minimum magnitude displayed is 2.5.

Coastal Water Temperatures

Place Temperature
No Stations Reporting

Nearby Weather Stations